sensor_id;sensor_type;location;lat;lon;timestamp;pressure;altitude;pressure_sealevel;temperature;humidity
59493;BME280;45497;43.996;22.876;2023-07-31T00:01:19;100553.94;;;24.57;58.23
59493;BME280;45497;43.996;22.876;2023-07-31T00:03:45;100550.34;;;24.46;58.54
59493;BME280;45497;43.996;22.876;2023-07-31T00:06:11;100554.69;;;24.42;58.39
59493;BME280;45497;43.996;22.876;2023-07-31T00:08:36;100552.47;;;24.34;58.76
59493;BME280;45497;43.996;22.876;2023-07-31T00:11:01;100547.59;;;24.36;58.52
59493;BME280;45497;43.996;22.876;2023-07-31T00:13:27;100544.88;;;24.36;58.83
59493;BME280;45497;43.996;22.876;2023-07-31T00:15:52;100544.34;;;24.34;58.54
59493;BME280;45497;43.996;22.876;2023-07-31T00:18:18;100555.44;;;24.32;58.68
59493;BME280;45497;43.996;22.876;2023-07-31T00:20:43;100550.56;;;24.24;58.86
59493;BME280;45497;43.996;22.876;2023-07-31T00:23:09;100558.13;;;24.27;58.87
59493;BME280;45497;43.996;22.876;2023-07-31T00:25:34;100550.84;;;24.33;58.67
59493;BME280;45497;43.996;22.876;2023-07-31T00:28:00;100551.06;;;24.16;59.01
59493;BME280;45497;43.996;22.876;2023-07-31T00:30:25;100548.88;;;24.08;59.34
59493;BME280;45497;43.996;22.876;2023-07-31T00:32:52;100550.44;;;24.03;59.25
59493;BME280;45497;43.996;22.876;2023-07-31T00:35:17;100547.75;;;24.03;59.30
59493;BME280;45497;43.996;22.876;2023-07-31T00:37:43;100538.53;;;23.99;59.21
59493;BME280;45497;43.996;22.876;2023-07-31T00:40:08;100552.13;;;24.10;59.14
59493;BME280;45497;43.996;22.876;2023-07-31T00:42:34;100556.69;;;24.09;59.10
59493;BME280;45497;43.996;22.876;2023-07-31T00:44:59;100543.66;;;23.96;59.33
59493;BME280;45497;43.996;22.876;2023-07-31T00:47:25;100544.75;;;24.00;59.23
59493;BME280;45497;43.996;22.876;2023-07-31T00:49:51;100545.28;;;24.02;58.95
59493;BME280;45497;43.996;22.876;2023-07-31T00:52:18;100530.91;;;23.91;58.82
59493;BME280;45497;43.996;22.876;2023-07-31T00:54:44;100542.59;;;23.97;58.95
59493;BME280;45497;43.996;22.876;2023-07-31T00:57:10;100543.94;;;23.99;58.56
59493;BME280;45497;43.996;22.876;2023-07-31T00:59:35;100542.63;;;24.07;58.19
59493;BME280;45497;43.996;22.876;2023-07-31T01:02:02;100535.59;;;24.11;57.98
59493;BME280;45497;43.996;22.876;2023-07-31T01:04:29;100537.47;;;24.00;58.15
59493;BME280;45497;43.996;22.876;2023-07-31T01:09:33;100527.38;;;23.91;58.61
59493;BME280;45497;43.996;22.876;2023-07-31T01:12:02;100522.81;;;24.01;58.30
59493;BME280;45497;43.996;22.876;2023-07-31T01:14:28;100521.19;;;23.95;58.59
59493;BME280;45497;43.996;22.876;2023-07-31T01:16:54;100528.50;;;24.00;58.48
59493;BME280;45497;43.996;22.876;2023-07-31T01:19:24;100525.00;;;23.99;58.17
59493;BME280;45497;43.996;22.876;2023-07-31T01:22:12;100521.47;;;23.99;58.31
59493;BME280;45497;43.996;22.876;2023-07-31T01:25:10;100538.88;;;24.13;57.75
59493;BME280;45497;43.996;22.876;2023-07-31T01:28:02;100528.81;;;24.09;57.93
59493;BME280;45497;43.996;22.876;2023-07-31T01:30:33;100525.81;;;24.05;58.02
59493;BME280;45497;43.996;22.876;2023-07-31T01:33:01;100519.78;;;23.88;58.43
59493;BME280;45497;43.996;22.876;2023-07-31T01:35:35;100520.34;;;23.95;58.02
59493;BME280;45497;43.996;22.876;2023-07-31T01:38:01;100524.50;;;24.08;57.57
59493;BME280;45497;43.996;22.876;2023-07-31T01:40:26;100523.63;;;24.02;57.85
59493;BME280;45497;43.996;22.876;2023-07-31T01:42:52;100520.94;;;23.97;57.89
59493;BME280;45497;43.996;22.876;2023-07-31T01:45:18;100519.84;;;24.03;57.83
59493;BME280;45497;43.996;22.876;2023-07-31T01:47:43;100514.66;;;23.91;57.77
59493;BME280;45497;43.996;22.876;2023-07-31T01:50:09;100511.94;;;23.91;57.92
59493;BME280;45497;43.996;22.876;2023-07-31T01:52:35;100520.63;;;23.98;57.66
59493;BME280;45497;43.996;22.876;2023-07-31T01:55:00;100520.13;;;24.01;57.42
59493;BME280;45497;43.996;22.876;2023-07-31T01:57:26;100524.47;;;24.02;57.19
59493;BME280;45497;43.996;22.876;2023-07-31T01:59:51;100541.78;;;24.01;57.38
59493;BME280;45497;43.996;22.876;2023-07-31T02:02:19;100540.16;;;24.00;56.86
59493;BME280;45497;43.996;22.876;2023-07-31T02:04:45;100540.66;;;23.92;57.07
59493;BME280;45497;43.996;22.876;2023-07-31T02:07:10;100542.88;;;24.00;56.86
59493;BME280;45497;43.996;22.876;2023-07-31T02:09:36;100548.22;;;23.90;56.79
59493;BME280;45497;43.996;22.876;2023-07-31T02:12:02;100552.00;;;23.89;56.85
59493;BME280;45497;43.996;22.876;2023-07-31T02:14:27;100548.16;;;23.80;57.07
59493;BME280;45497;43.996;22.876;2023-07-31T02:16:52;100555.22;;;23.81;56.90
59493;BME280;45497;43.996;22.876;2023-07-31T02:19:18;100553.34;;;23.87;56.65
59493;BME280;45497;43.996;22.876;2023-07-31T02:21:44;100559.00;;;23.80;56.67
59493;BME280;45497;43.996;22.876;2023-07-31T02:24:09;100574.88;;;23.71;56.85
59493;BME280;45497;43.996;22.876;2023-07-31T02:26:35;100568.44;;;23.77;56.53
59493;BME280;45497;43.996;22.876;2023-07-31T02:29:00;100571.09;;;23.72;56.91
59493;BME280;45497;43.996;22.876;2023-07-31T02:31:26;100579.75;;;23.69;56.61
59493;BME280;45497;43.996;22.876;2023-07-31T02:33:51;100579.22;;;23.72;56.75
59493;BME280;45497;43.996;22.876;2023-07-31T02:36:17;100587.91;;;23.74;56.72
59493;BME280;45497;43.996;22.876;2023-07-31T02:38:42;100585.63;;;23.56;57.03
59493;BME280;45497;43.996;22.876;2023-07-31T02:41:08;100579.91;;;23.52;56.99
59493;BME280;45497;43.996;22.876;2023-07-31T02:43:33;100585.88;;;23.54;56.67
59493;BME280;45497;43.996;22.876;2023-07-31T02:45:59;100580.63;;;23.37;57.13
59493;BME280;45497;43.996;22.876;2023-07-31T02:48:25;100587.72;;;23.48;56.90
59493;BME280;45497;43.996;22.876;2023-07-31T02:50:50;100583.28;;;23.32;57.12
59493;BME280;45497;43.996;22.876;2023-07-31T02:53:16;100586.84;;;23.38;57.00
59493;BME280;45497;43.996;22.876;2023-07-31T02:55:41;100590.84;;;23.35;56.90
59493;BME280;45497;43.996;22.876;2023-07-31T02:58:06;100587.78;;;23.21;57.06
59493;BME280;45497;43.996;22.876;2023-07-31T03:00:32;100591.81;;;23.19;56.91
59493;BME280;45497;43.996;22.876;2023-07-31T03:02:57;100599.41;;;23.22;56.87
59493;BME280;45497;43.996;22.876;2023-07-31T03:05:23;100592.41;;;23.26;56.67
59493;BME280;45497;43.996;22.876;2023-07-31T03:07:48;100598.19;;;23.40;56.43
59493;BME280;45497;43.996;22.876;2023-07-31T03:10:14;100592.50;;;23.36;56.14
59493;BME280;45497;43.996;22.876;2023-07-31T03:12:40;100600.91;;;23.40;56.07
59493;BME280;45497;43.996;22.876;2023-07-31T03:15:06;100601.66;;;23.35;55.92
59493;BME280;45497;43.996;22.876;2023-07-31T03:17:32;100599.16;;;23.23;55.94
59493;BME280;45497;43.996;22.876;2023-07-31T03:19:57;100595.09;;;23.26;55.78
59493;BME280;45497;43.996;22.876;2023-07-31T03:22:23;100589.69;;;23.26;55.76
59493;BME280;45497;43.996;22.876;2023-07-31T03:24:48;100599.50;;;23.32;55.31
59493;BME280;45497;43.996;22.876;2023-07-31T03:27:14;100602.97;;;23.27;55.22
59493;BME280;45497;43.996;22.876;2023-07-31T03:29:39;100604.34;;;23.30;55.19
59493;BME280;45497;43.996;22.876;2023-07-31T03:32:05;100604.97;;;23.37;54.89
59493;BME280;45497;43.996;22.876;2023-07-31T03:34:30;100597.59;;;23.33;54.53
59493;BME280;45497;43.996;22.876;2023-07-31T03:36:57;100596.91;;;23.47;54.38
59493;BME280;45497;43.996;22.876;2023-07-31T03:39:23;100603.41;;;23.46;53.89
59493;BME280;45497;43.996;22.876;2023-07-31T03:41:48;100603.81;;;23.33;54.37
59493;BME280;45497;43.996;22.876;2023-07-31T03:44:14;100605.22;;;23.36;54.28
59493;BME280;45497;43.996;22.876;2023-07-31T03:46:39;100613.94;;;23.43;54.06
59493;BME280;45497;43.996;22.876;2023-07-31T03:49:05;100610.09;;;23.39;53.82
59493;BME280;45497;43.996;22.876;2023-07-31T03:51:30;100611.44;;;23.36;53.80
59493;BME280;45497;43.996;22.876;2023-07-31T03:53:56;100605.47;;;23.34;54.11
59493;BME280;45497;43.996;22.876;2023-07-31T03:56:22;100614.69;;;23.38;54.03
59493;BME280;45497;43.996;22.876;2023-07-31T03:58:47;100623.06;;;23.37;53.73
59493;BME280;45497;43.996;22.876;2023-07-31T04:01:13;100620.59;;;23.35;53.60
59493;BME280;45497;43.996;22.876;2023-07-31T04:03:38;100626.31;;;23.39;53.55
59493;BME280;45497;43.996;22.876;2023-07-31T04:06:04;100619.38;;;23.48;53.38
59493;BME280;45497;43.996;22.876;2023-07-31T04:08:29;100619.19;;;23.60;53.37
59493;BME280;45497;43.996;22.876;2023-07-31T04:10:55;100630.59;;;23.67;53.04
59493;BME280;45497;43.996;22.876;2023-07-31T04:13:22;100632.31;;;23.78;52.91
59493;BME280;45497;43.996;22.876;2023-07-31T04:15:49;100637.13;;;23.71;53.07
59493;BME280;45497;43.996;22.876;2023-07-31T04:18:15;100625.94;;;23.90;52.50
59493;BME280;45497;43.996;22.876;2023-07-31T04:20:41;100630.84;;;23.98;52.14
59493;BME280;45497;43.996;22.876;2023-07-31T04:23:06;100629.75;;;23.94;52.00
59493;BME280;45497;43.996;22.876;2023-07-31T04:25:32;100623.78;;;23.92;52.37
59493;BME280;45497;43.996;22.876;2023-07-31T04:27:57;100622.09;;;23.85;52.60
59493;BME280;45497;43.996;22.876;2023-07-31T04:30:22;100621.06;;;23.92;52.42
59493;BME280;45497;43.996;22.876;2023-07-31T04:32:49;100625.97;;;24.00;52.33
59493;BME280;45497;43.996;22.876;2023-07-31T04:35:14;100633.09;;;24.11;52.31
59493;BME280;45497;43.996;22.876;2023-07-31T04:37:40;100627.94;;;24.10;52.04
59493;BME280;45497;43.996;22.876;2023-07-31T04:40:07;100633.34;;;24.10;52.01
59493;BME280;45497;43.996;22.876;2023-07-31T04:42:33;100636.84;;;24.05;52.25
59493;BME280;45497;43.996;22.876;2023-07-31T04:44:59;100639.81;;;24.03;52.32
59493;BME280;45497;43.996;22.876;2023-07-31T04:47:25;100643.66;;;24.13;52.23
59493;BME280;45497;43.996;22.876;2023-07-31T04:49:50;100640.41;;;24.16;52.14
59493;BME280;45497;43.996;22.876;2023-07-31T04:52:16;100638.53;;;24.11;52.13
59493;BME280;45497;43.996;22.876;2023-07-31T04:54:41;100633.69;;;24.23;51.90
59493;BME280;45497;43.996;22.876;2023-07-31T04:57:07;100636.69;;;24.22;51.90
59493;BME280;45497;43.996;22.876;2023-07-31T04:59:32;100636.75;;;24.37;51.39
59493;BME280;45497;43.996;22.876;2023-07-31T05:01:57;100635.34;;;24.30;51.74
59493;BME280;45497;43.996;22.876;2023-07-31T05:04:23;100635.66;;;24.38;51.50
59493;BME280;45497;43.996;22.876;2023-07-31T05:06:48;100645.00;;;24.58;51.48
59493;BME280;45497;43.996;22.876;2023-07-31T05:09:14;100651.84;;;24.76;51.23
59493;BME280;45497;43.996;22.876;2023-07-31T05:11:39;100653.75;;;24.80;51.25
59493;BME280;45497;43.996;22.876;2023-07-31T05:14:08;100660.56;;;24.98;51.12
59493;BME280;45497;43.996;22.876;2023-07-31T05:16:33;100659.25;;;25.16;50.72
59493;BME280;45497;43.996;22.876;2023-07-31T05:18:59;100657.06;;;25.13;50.65
59493;BME280;45497;43.996;22.876;2023-07-31T05:21:24;100656.81;;;25.20;50.51
59493;BME280;45497;43.996;22.876;2023-07-31T05:23:50;100659.25;;;25.22;50.32
59493;BME280;45497;43.996;22.876;2023-07-31T05:26:15;100662.84;;;25.37;50.12
59493;BME280;45497;43.996;22.876;2023-07-31T05:28:41;100650.63;;;25.25;49.70
59493;BME280;45497;43.996;22.876;2023-07-31T05:31:06;100656.59;;;25.42;49.75
59493;BME280;45497;43.996;22.876;2023-07-31T05:33:32;100651.16;;;25.42;49.47
59493;BME280;45497;43.996;22.876;2023-07-31T05:35:58;100662.28;;;25.61;49.12
59493;BME280;45497;43.996;22.876;2023-07-31T05:38:23;100650.59;;;25.91;48.66
59493;BME280;45497;43.996;22.876;2023-07-31T05:40:49;100650.31;;;26.03;47.67
59493;BME280;45497;43.996;22.876;2023-07-31T05:43:14;100655.69;;;26.29;47.57
59493;BME280;45497;43.996;22.876;2023-07-31T05:45:42;100661.16;;;26.24;47.36
59493;BME280;45497;43.996;22.876;2023-07-31T05:48:07;100654.66;;;26.15;47.65
59493;BME280;45497;43.996;22.876;2023-07-31T05:50:33;100662.22;;;26.23;47.61
59493;BME280;45497;43.996;22.876;2023-07-31T05:52:58;100658.66;;;26.32;47.52
59493;BME280;45497;43.996;22.876;2023-07-31T05:55:24;100660.53;;;26.42;47.28
59493;BME280;45497;43.996;22.876;2023-07-31T05:57:52;100656.66;;;26.64;46.49
59493;BME280;45497;43.996;22.876;2023-07-31T06:00:18;100666.22;;;26.51;46.62
59493;BME280;45497;43.996;22.876;2023-07-31T06:02:43;100647.97;;;26.57;46.48
59493;BME280;45497;43.996;22.876;2023-07-31T06:05:09;100660.00;;;26.40;46.34
59493;BME280;45497;43.996;22.876;2023-07-31T06:07:35;100669.44;;;26.58;46.66
59493;BME280;45497;43.996;22.876;2023-07-31T06:10:01;100659.91;;;26.71;46.33
59493;BME280;45497;43.996;22.876;2023-07-31T06:12:28;100657.75;;;26.58;46.41
59493;BME280;45497;43.996;22.876;2023-07-31T06:14:54;100659.38;;;26.69;46.40
59493;BME280;45497;43.996;22.876;2023-07-31T06:17:20;100663.28;;;26.97;45.59
59493;BME280;45497;43.996;22.876;2023-07-31T06:19:46;100664.03;;;27.08;45.51
59493;BME280;45497;43.996;22.876;2023-07-31T06:22:12;100663.59;;;26.96;45.80
59493;BME280;45497;43.996;22.876;2023-07-31T06:24:37;100668.53;;;26.88;45.84
59493;BME280;45497;43.996;22.876;2023-07-31T06:27:03;100656.28;;;26.86;45.75
59493;BME280;45497;43.996;22.876;2023-07-31T06:29:29;100668.88;;;26.66;46.22
59493;BME280;45497;43.996;22.876;2023-07-31T06:31:55;100669.09;;;26.80;46.36
59493;BME280;45497;43.996;22.876;2023-07-31T06:34:20;100659.97;;;27.05;46.05
59493;BME280;45497;43.996;22.876;2023-07-31T06:36:46;100664.03;;;27.08;45.25
59493;BME280;45497;43.996;22.876;2023-07-31T06:39:11;100655.19;;;26.92;45.89
59493;BME280;45497;43.996;22.876;2023-07-31T06:41:38;100664.28;;;27.12;45.98
59493;BME280;45497;43.996;22.876;2023-07-31T06:44:03;100666.13;;;27.26;45.85
59493;BME280;45497;43.996;22.876;2023-07-31T06:46:29;100663.31;;;27.37;45.59
59493;BME280;45497;43.996;22.876;2023-07-31T06:48:54;100659.78;;;27.36;45.22
59493;BME280;45497;43.996;22.876;2023-07-31T06:51:20;100659.69;;;27.52;44.95
59493;BME280;45497;43.996;22.876;2023-07-31T06:53:46;100653.53;;;27.36;45.30
59493;BME280;45497;43.996;22.876;2023-07-31T06:56:12;100666.78;;;27.48;44.81
59493;BME280;45497;43.996;22.876;2023-07-31T06:58:38;100653.75;;;27.44;44.67
59493;BME280;45497;43.996;22.876;2023-07-31T07:01:03;100665.19;;;27.41;44.81
59493;BME280;45497;43.996;22.876;2023-07-31T07:03:29;100658.09;;;27.45;44.53
59493;BME280;45497;43.996;22.876;2023-07-31T07:05:54;100664.84;;;27.53;44.57
59493;BME280;45497;43.996;22.876;2023-07-31T07:08:20;100662.97;;;27.49;44.40
59493;BME280;45497;43.996;22.876;2023-07-31T07:10:46;100664.50;;;27.60;44.19
59493;BME280;45497;43.996;22.876;2023-07-31T07:13:12;100668.56;;;27.62;43.59
59493;BME280;45497;43.996;22.876;2023-07-31T07:15:38;100666.00;;;27.42;44.04
59493;BME280;45497;43.996;22.876;2023-07-31T07:18:04;100665.44;;;27.45;43.81
59493;BME280;45497;43.996;22.876;2023-07-31T07:20:29;100676.13;;;27.71;43.87
59493;BME280;45497;43.996;22.876;2023-07-31T07:22:55;100668.56;;;27.62;43.59
59493;BME280;45497;43.996;22.876;2023-07-31T07:25:20;100671.47;;;27.71;43.32
59493;BME280;45497;43.996;22.876;2023-07-31T07:27:46;100669.19;;;27.54;42.90
59493;BME280;45497;43.996;22.876;2023-07-31T07:30:11;100670.44;;;27.67;42.29
59493;BME280;45497;43.996;22.876;2023-07-31T07:32:37;100678.34;;;27.63;42.56
59493;BME280;45497;43.996;22.876;2023-07-31T07:35:03;100674.91;;;27.53;42.43
59493;BME280;45497;43.996;22.876;2023-07-31T07:37:28;100670.78;;;27.60;41.82
59493;BME280;45497;43.996;22.876;2023-07-31T07:39:54;100672.59;;;27.70;42.33
59493;BME280;45497;43.996;22.876;2023-07-31T07:42:19;100672.97;;;27.88;42.22
59493;BME280;45497;43.996;22.876;2023-07-31T07:44:45;100675.72;;;28.17;42.15
59493;BME280;45497;43.996;22.876;2023-07-31T07:47:10;100666.75;;;27.82;42.37
59493;BME280;45497;43.996;22.876;2023-07-31T07:49:36;100669.31;;;27.73;41.45
59493;BME280;45497;43.996;22.876;2023-07-31T07:52:02;100675.03;;;27.72;41.89
59493;BME280;45497;43.996;22.876;2023-07-31T07:54:28;100671.16;;;28.07;41.01
59493;BME280;45497;43.996;22.876;2023-07-31T07:56:53;100671.47;;;28.06;41.41
59493;BME280;45497;43.996;22.876;2023-07-31T07:59:19;100675.84;;;28.01;41.55
59493;BME280;45497;43.996;22.876;2023-07-31T08:01:44;100674.34;;;28.14;41.26
59493;BME280;45497;43.996;22.876;2023-07-31T08:04:10;100669.22;;;28.37;40.90
59493;BME280;45497;43.996;22.876;2023-07-31T08:06:35;100679.31;;;28.36;41.01
59493;BME280;45497;43.996;22.876;2023-07-31T08:09:01;100683.47;;;28.29;40.83
59493;BME280;45497;43.996;22.876;2023-07-31T08:11:31;100679.13;;;28.28;41.05
59493;BME280;45497;43.996;22.876;2023-07-31T08:13:57;100682.19;;;28.21;40.51
59493;BME280;45497;43.996;22.876;2023-07-31T08:16:22;100672.31;;;28.54;40.28
59493;BME280;45497;43.996;22.876;2023-07-31T08:18:47;100678.66;;;28.45;39.95
59493;BME280;45497;43.996;22.876;2023-07-31T08:21:14;100675.00;;;28.30;40.38
59493;BME280;45497;43.996;22.876;2023-07-31T08:23:40;100671.88;;;28.42;40.34
59493;BME280;45497;43.996;22.876;2023-07-31T08:26:05;100666.13;;;28.44;40.59
59493;BME280;45497;43.996;22.876;2023-07-31T08:28:31;100675.34;;;28.48;40.08
59493;BME280;45497;43.996;22.876;2023-07-31T08:30:57;100677.47;;;28.56;40.15
59493;BME280;45497;43.996;22.876;2023-07-31T08:33:22;100670.84;;;28.38;40.06
59493;BME280;45497;43.996;22.876;2023-07-31T08:35:47;100684.81;;;28.55;39.79
59493;BME280;45497;43.996;22.876;2023-07-31T08:38:14;100680.91;;;28.37;39.61
59493;BME280;45497;43.996;22.876;2023-07-31T08:40:39;100673.91;;;28.55;39.39
59493;BME280;45497;43.996;22.876;2023-07-31T08:43:05;100670.06;;;28.32;39.51
59493;BME280;45497;43.996;22.876;2023-07-31T08:45:30;100679.28;;;28.12;39.27
59493;BME280;45497;43.996;22.876;2023-07-31T08:47:58;100673.59;;;28.09;39.22
59493;BME280;45497;43.996;22.876;2023-07-31T08:50:24;100661.13;;;28.27;38.95
59493;BME280;45497;43.996;22.876;2023-07-31T08:52:50;100668.34;;;28.41;38.34
59493;BME280;45497;43.996;22.876;2023-07-31T08:55:16;100668.63;;;28.16;39.18
59493;BME280;45497;43.996;22.876;2023-07-31T08:57:43;100667.56;;;28.36;38.75
59493;BME280;45497;43.996;22.876;2023-07-31T09:00:09;100669.06;;;27.99;39.00
59493;BME280;45497;43.996;22.876;2023-07-31T09:05:12;100669.69;;;28.87;38.49
59493;BME280;45497;43.996;22.876;2023-07-31T09:07:38;100666.44;;;29.04;37.61
59493;BME280;45497;43.996;22.876;2023-07-31T09:10:05;100683.63;;;28.86;37.75
59493;BME280;45497;43.996;22.876;2023-07-31T09:12:31;100680.22;;;28.75;38.33
59493;BME280;45497;43.996;22.876;2023-07-31T09:14:57;100670.06;;;29.00;38.73
59493;BME280;45497;43.996;22.876;2023-07-31T09:17:33;100675.56;;;29.13;38.86
59493;BME280;45497;43.996;22.876;2023-07-31T09:20:16;100682.06;;;28.79;38.65
59493;BME280;45497;43.996;22.876;2023-07-31T09:22:42;100668.84;;;28.68;38.71
59493;BME280;45497;43.996;22.876;2023-07-31T09:25:22;100659.16;;;29.00;38.26
59493;BME280;45497;43.996;22.876;2023-07-31T09:27:54;100663.66;;;28.90;38.03
59493;BME280;45497;43.996;22.876;2023-07-31T09:30:21;100654.72;;;28.85;38.66
59493;BME280;45497;43.996;22.876;2023-07-31T09:32:48;100654.19;;;29.02;38.03
59493;BME280;45497;43.996;22.876;2023-07-31T09:35:21;100651.63;;;29.10;37.49
59493;BME280;45497;43.996;22.876;2023-07-31T09:37:57;100651.41;;;29.26;37.07
59493;BME280;45497;43.996;22.876;2023-07-31T09:40:33;100660.00;;;29.19;36.72
59493;BME280;45497;43.996;22.876;2023-07-31T09:43:19;100653.69;;;29.00;37.14
59493;BME280;45497;43.996;22.876;2023-07-31T09:45:46;100663.13;;;28.88;37.84
59493;BME280;45497;43.996;22.876;2023-07-31T09:48:16;100663.69;;;29.04;37.74
59493;BME280;45497;43.996;22.876;2023-07-31T09:50:43;100650.00;;;29.28;37.35
59493;BME280;45497;43.996;22.876;2023-07-31T09:53:09;100654.34;;;29.29;37.65
59493;BME280;45497;43.996;22.876;2023-07-31T09:55:36;100648.06;;;29.10;37.65
59493;BME280;45497;43.996;22.876;2023-07-31T09:58:07;100641.38;;;29.21;37.55
59493;BME280;45497;43.996;22.876;2023-07-31T10:00:33;100652.19;;;29.45;38.05
59493;BME280;45497;43.996;22.876;2023-07-31T10:03:00;100652.34;;;29.68;36.36
59493;BME280;45497;43.996;22.876;2023-07-31T10:05:46;100644.72;;;29.51;36.66
59493;BME280;45497;43.996;22.876;2023-07-31T10:08:15;100640.59;;;29.53;36.70
59493;BME280;45497;43.996;22.876;2023-07-31T10:10:44;100643.91;;;29.17;38.05
59493;BME280;45497;43.996;22.876;2023-07-31T10:13:11;100641.94;;;28.99;37.47
59493;BME280;45497;43.996;22.876;2023-07-31T10:15:37;100636.81;;;29.16;37.45
59493;BME280;45497;43.996;22.876;2023-07-31T10:18:05;100638.22;;;29.47;36.81
59493;BME280;45497;43.996;22.876;2023-07-31T10:20:31;100648.34;;;29.46;36.65
59493;BME280;45497;43.996;22.876;2023-07-31T10:22:57;100636.94;;;29.58;36.52
59493;BME280;45497;43.996;22.876;2023-07-31T10:25:25;100650.38;;;29.54;36.81
59493;BME280;45497;43.996;22.876;2023-07-31T10:27:52;100641.34;;;29.73;36.15
59493;BME280;45497;43.996;22.876;2023-07-31T10:30:20;100644.28;;;29.44;37.08
59493;BME280;45497;43.996;22.876;2023-07-31T10:32:48;100647.88;;;29.25;37.10
59493;BME280;45497;43.996;22.876;2023-07-31T10:35:16;100648.22;;;29.19;37.02
59493;BME280;45497;43.996;22.876;2023-07-31T10:37:43;100649.88;;;29.20;37.11
59493;BME280;45497;43.996;22.876;2023-07-31T10:40:25;100640.09;;;29.13;36.25
59493;BME280;45497;43.996;22.876;2023-07-31T10:42:52;100643.38;;;29.15;37.02
59493;BME280;45497;43.996;22.876;2023-07-31T10:48:01;100624.44;;;29.38;37.32
59493;BME280;45497;43.996;22.876;2023-07-31T10:50:28;100629.38;;;29.69;36.90
59493;BME280;45497;43.996;22.876;2023-07-31T10:52:55;100632.41;;;29.53;36.90
59493;BME280;45497;43.996;22.876;2023-07-31T10:55:33;100623.28;;;29.25;37.78
59493;BME280;45497;43.996;22.876;2023-07-31T10:58:10;100630.19;;;29.23;38.30
59493;BME280;45497;43.996;22.876;2023-07-31T11:00:38;100624.50;;;29.19;37.81
59493;BME280;45497;43.996;22.876;2023-07-31T11:03:06;100627.22;;;29.19;38.10
59493;BME280;45497;43.996;22.876;2023-07-31T11:05:51;100619.41;;;29.45;38.15
59493;BME280;45497;43.996;22.876;2023-07-31T11:08:24;100618.91;;;29.76;37.22
59493;BME280;45497;43.996;22.876;2023-07-31T11:13:28;100619.56;;;29.35;37.67
59493;BME280;45497;43.996;22.876;2023-07-31T11:15:53;100612.34;;;29.58;37.71
59493;BME280;45497;43.996;22.876;2023-07-31T11:18:19;100606.69;;;29.87;37.29
59493;BME280;45497;43.996;22.876;2023-07-31T11:20:44;100595.22;;;29.85;36.36
59493;BME280;45497;43.996;22.876;2023-07-31T11:23:10;100607.66;;;29.78;35.67
59493;BME280;45497;43.996;22.876;2023-07-31T11:25:37;100620.84;;;30.03;35.59
59493;BME280;45497;43.996;22.876;2023-07-31T11:28:07;100609.91;;;30.03;36.27
59493;BME280;45497;43.996;22.876;2023-07-31T11:30:33;100614.88;;;30.01;36.21
59493;BME280;45497;43.996;22.876;2023-07-31T11:33:05;100614.97;;;29.49;36.52
59493;BME280;45497;43.996;22.876;2023-07-31T11:35:36;100613.69;;;29.61;36.99
59493;BME280;45497;43.996;22.876;2023-07-31T11:38:02;100609.91;;;29.76;37.29
59493;BME280;45497;43.996;22.876;2023-07-31T11:40:28;100613.03;;;29.83;37.11
59493;BME280;45497;43.996;22.876;2023-07-31T11:42:58;100612.34;;;29.77;36.95
59493;BME280;45497;43.996;22.876;2023-07-31T11:45:27;100603.72;;;29.98;36.81
59493;BME280;45497;43.996;22.876;2023-07-31T11:47:56;100597.88;;;30.04;36.79
59493;BME280;45497;43.996;22.876;2023-07-31T11:50:23;100600.78;;;29.94;36.91
59493;BME280;45497;43.996;22.876;2023-07-31T11:52:53;100600.41;;;30.01;36.92
59493;BME280;45497;43.996;22.876;2023-07-31T11:55:20;100588.56;;;30.05;36.62
59493;BME280;45497;43.996;22.876;2023-07-31T11:57:46;100596.81;;;29.59;37.15
59493;BME280;45497;43.996;22.876;2023-07-31T12:00:12;100610.59;;;29.34;37.47
59493;BME280;45497;43.996;22.876;2023-07-31T12:02:39;100600.56;;;29.30;37.45
59493;BME280;45497;43.996;22.876;2023-07-31T12:05:10;100593.47;;;29.29;37.23
59493;BME280;45497;43.996;22.876;2023-07-31T12:07:46;100591.97;;;29.69;36.79
59493;BME280;45497;43.996;22.876;2023-07-31T12:10:26;100583.22;;;29.67;36.24
59493;BME280;45497;43.996;22.876;2023-07-31T12:15:38;100573.56;;;29.75;36.73
59493;BME280;45497;43.996;22.876;2023-07-31T12:18:18;100569.84;;;30.13;36.02
59493;BME280;45497;43.996;22.876;2023-07-31T12:21:27;100579.03;;;30.03;36.29
59493;BME280;45497;43.996;22.876;2023-07-31T12:23:35;100561.44;;;30.09;35.93
59493;BME280;45497;43.996;22.876;2023-07-31T12:26:08;100558.25;;;30.43;35.70
59493;BME280;45497;43.996;22.876;2023-07-31T12:28:48;100565.13;;;30.27;35.91
59493;BME280;45497;43.996;22.876;2023-07-31T12:31:16;100560.84;;;29.98;36.99
59493;BME280;45497;43.996;22.876;2023-07-31T12:33:43;100563.97;;;30.05;36.84
59493;BME280;45497;43.996;22.876;2023-07-31T12:38:35;100569.19;;;29.74;36.40
59493;BME280;45497;43.996;22.876;2023-07-31T12:41:01;100566.88;;;29.81;36.80
59493;BME280;45497;43.996;22.876;2023-07-31T12:43:26;100556.44;;;29.69;35.93
59493;BME280;45497;43.996;22.876;2023-07-31T12:45:54;100550.06;;;29.74;36.06
59493;BME280;45497;43.996;22.876;2023-07-31T12:48:19;100552.03;;;29.87;35.26
59493;BME280;45497;43.996;22.876;2023-07-31T12:50:45;100551.50;;;30.13;35.62
59493;BME280;45497;43.996;22.876;2023-07-31T12:53:10;100549.84;;;29.70;34.93
59493;BME280;45497;43.996;22.876;2023-07-31T12:55:36;100558.19;;;29.93;35.26